CAMANCHE RESERVOIR (CMN)

Elevation: 236' · MOKELUMNE R basin · Operator: East Bay Municipal Utility District

Provisional data, subject to change.
Query executed Saturday at 20:02:37   clock

Select a sensor type for a plot of data.
Note: Reservoir Flows are daily averages.

Earlier

Date RES ELE    STORAGE    RES CHG    TOC STO    ABV TOC    OUTFLOW    INFLOW   
 FEET   AF   AF   AF   AF   CFS   CFS  
01/29/2015 186.62 132700 -407 292040 -159340 226 11
01/30/2015 186.50 132220 -467 292040 -159820 225 11
01/31/2015 186.50 131820 -401 292080 -160260 225 11
02/01/2015 186.31 131460 -367 292090 -160630 225 11
02/02/2015 186.20 131020 -430 292110 -161090 225 11
02/03/2015 186.09 130580 -430 292090 -161510 225 11
02/04/2015 186.00 130220 -372 291980 -161760 225 11
02/05/2015 185.87 129710 -417 291960 -162250 225 11
02/06/2015 185.86 129670 48 291760 -162090 225 11
02/07/2015 185.82 129510 -269 291180 -161670 226 11
02/08/2015 185.89 129790 393 288950 -- 225 11
02/09/2015 185.83 129550 -238 283140 -153590 226 11
02/10/2015 185.75 129240 -339 281620 -152380 226 11
02/11/2015 185.66 128880 -369 280580 -- 225 11
02/12/2015 185.56 128490 -374 279690 -151200 225 11
02/13/2015 185.46 128090 -382 278940 -- 225 11
02/14/2015 185.36 127700 -407 278460 -- 225 11
02/15/2015 185.26 127310 -417 277980 -- 225 11
02/16/2015 185.14 126840 -408 277650 -150810 225 11
02/17/2015 185.30 127470 626 278380 -150910 226 537
02/18/2015 185.46 128090 643 279030 -150940 225 546
02/19/2015 185.64 128800 699 279750 -150950 225 559
02/20/2015 185.81 129470 646 280400 -- 226 562
02/21/2015 185.97 130100 614 281080 -- 225 564
02/22/2015 185.86 129670 -432 280690 -151038 226 11
02/23/2015 185.74 129200 -473 280310 -151110 225 11
02/24/2015 185.61 128680 -497 279980 -151300 225 11
02/25/2015 185.53 128370 -308 279730 -151360 225 11
02/26/2015 185.41 127900 -482 279630 -151730 225 11
02/27/2015 185.29 127428 -472 -- -- 225 1
02/28/2015 -- -- -- -- -- -- --

Later | Latest

Warning! This data is preliminary and subject to revision.

Show CMN Map | Plot CMN Data | 1 Month CMN Data | Real-Time CMN Data | CMN Info